Terminal Aerodrome Forecast
Issued by NWS Billings, MT

Home | Current Version | Previous Version | Text Only | Print | Product List | Glossary On
Versions: 1 2 3 4 5 6 7 8 9 10 11 12 13 14 15 16 17 18 19 20 21 22 23 24 25 26 27 28 29 30 31 32 33 34 35 36 37 38 39 40 41
000
FTUS45 KBYZ 310158 AAB
TAFBIL
TAF AMD
KBIL 310158Z 3102/3124 35017G23KT P6SM VCSH FEW070 SCT110 BKN200
     FM310800 28015KT P6SM SCT120
     FM311500 31024G36KT P6SM VCSH BKN035 OVC070
     FM311800 33019G25KT P6SM VCSH BKN035 OVC070
     FM312100 35015KT P6SM VCSH BKN050=

USA.gov is the U.S. government's official web portal to all federal, state and local government web resources and services.